Time;durP1;ratioP1;P1;durP2;ratioP2;P2;SDS_P1;SDS_P2;PMS_P1;PMS_P2;Temp;Humidity;BMP_temperature;BMP_pressure;BME280_temperature;BME280_humidity;BME280_pressure;Samples;Min_cycle;Max_cycle;Signal;HPM_P1;HPM_P2
2022/05/13 00:01:21;;;;;;;9.47;6.80;;;10.90;1.00;;;;;;5100678;28;20513;-58
2022/05/13 00:03:50;;;;;;;7.80;7.00;;;10.90;1.00;;;;;;5098519;28;20496;-58
2022/05/13 00:06:20;;;;;;;9.37;6.23;;;10.70;1.00;;;;;;5080103;28;20489;-58
2022/05/13 00:08:48;;;;;;;7.43;6.73;;;10.70;1.00;;;;;;5080112;28;20544;-58
2022/05/13 00:11:22;;;;;;;9.97;6.23;;;10.70;1.00;;;;;;5080170;28;20493;-58
2022/05/13 00:13:53;;;;;;;7.30;5.70;;;10.70;1.00;;;;;;5079215;28;20474;-58
2022/05/13 00:16:22;;;;;;;7.00;5.03;;;10.60;1.00;;;;;;5096120;28;20513;-58
2022/05/13 00:18:53;;;;;;;7.37;6.40;;;10.50;1.00;;;;;;5082868;28;20461;-58
2022/05/13 00:21:25;;;;;;;9.20;6.50;;;10.40;1.00;;;;;;5079674;28;20472;-58
2022/05/13 00:23:52;;;;;;;8.63;6.67;;;10.30;1.00;;;;;;5079736;28;20913;-58
2022/05/13 00:26:25;;;;;;;6.40;5.80;;;10.30;1.00;;;;;;5079931;28;20532;-57
2022/05/13 00:28:55;;;;;;;9.33;6.90;;;10.30;1.00;;;;;;5091197;28;20518;-54
2022/05/13 00:31:32;;;;;;;7.67;6.90;;;10.20;1.00;;;;;;5100005;28;20518;-57
2022/05/13 00:34:04;;;;;;;10.30;7.27;;;10.20;1.00;;;;;;5099454;28;20463;-57
2022/05/13 00:36:37;;;;;;;9.33;6.83;;;10.20;1.00;;;;;;5099930;28;20874;-57
2022/05/13 00:39:04;;;;;;;6.90;5.70;;;10.10;1.00;;;;;;5088280;28;20564;-57
2022/05/13 00:41:36;;;;;;;7.00;6.30;;;10.00;1.00;;;;;;5080060;28;20529;-58
2022/05/13 00:44:04;;;;;;;8.57;6.80;;;10.00;1.00;;;;;;5094086;28;20464;-57
2022/05/13 00:46:34;;;;;;;7.37;6.30;;;9.90;1.00;;;;;;5099930;28;20569;-57
2022/05/13 00:49:12;;;;;;;9.67;8.20;;;9.90;1.00;;;;;;5093035;28;20504;-57
2022/05/13 00:51:45;;;;;;;8.27;7.13;;;9.90;1.00;;;;;;5077927;28;20798;-55
2022/05/13 00:54:18;;;;;;;9.10;7.70;;;9.80;1.00;;;;;;5079020;28;20493;-58
2022/05/13 00:56:48;;;;;;;8.13;6.73;;;9.80;1.00;;;;;;5079075;28;20469;-57
2022/05/13 00:59:25;;;;;;;9.03;6.90;;;9.70;1.00;;;;;;5082080;28;20525;-57
2022/05/13 01:02:05;;;;;;;8.80;6.73;;;9.70;1.00;;;;;;5099322;28;20529;-57
2022/05/13 01:04:39;;;;;;;10.90;7.40;;;9.70;1.00;;;;;;5098413;28;20483;-56
2022/05/13 01:07:11;;;;;;;10.20;7.40;;;9.60;1.00;;;;;;5096855;28;20893;-56
2022/05/13 01:09:46;;;;;;;8.70;7.90;;;9.60;1.00;;;;;;5099003;28;20464;-57
2022/05/13 01:12:20;;;;;;;8.40;7.60;;;9.50;1.00;;;;;;5099199;28;20460;-57
2022/05/13 01:15:01;;;;;;;6.83;6.23;;;9.50;1.00;;;;;;5099481;28;20482;-57
2022/05/13 01:20:22;;;;;;;9.60;7.60;;;9.50;1.00;;;;;;5078378;28;20567;-57
2022/05/13 01:22:54;;;;;;;9.97;6.83;;;9.50;1.00;;;;;;5078735;28;20555;-57
2022/05/13 01:25:24;;;;;;;8.03;7.30;;;9.40;1.00;;;;;;5079194;28;20519;-57
2022/05/13 01:27:52;;;;;;;8.47;7.57;;;9.40;1.00;;;;;;5092257;28;20534;-56
2022/05/13 01:30:26;;;;;;;9.37;7.27;;;9.40;1.00;;;;;;5098091;28;20525;-58
2022/05/13 01:32:54;;;;;;;8.60;7.70;;;9.40;1.00;;;;;;5098880;28;20502;-56
2022/05/13 01:35:21;;;;;;;8.27;7.47;;;9.40;1.00;;;;;;5098229;28;20460;-57
2022/05/13 01:37:50;;;;;;;12.07;7.53;;;9.40;1.00;;;;;;5087289;28;20468;-57
2022/05/13 01:40:17;;;;;;;8.27;7.20;;;9.30;1.00;;;;;;5078130;28;20943;-57
2022/05/13 01:42:45;;;;;;;8.30;7.47;;;9.30;1.00;;;;;;5077667;28;20515;-58
2022/05/13 01:45:16;;;;;;;14.53;7.53;;;9.30;1.00;;;;;;5078890;28;20436;-57
2022/05/13 01:47:47;;;;;;;8.83;7.70;;;9.20;1.00;;;;;;5083357;28;20520;-57
2022/05/13 01:50:17;;;;;;;11.73;7.60;;;9.20;1.00;;;;;;5098186;28;20467;-57
2022/05/13 01:52:44;;;;;;;8.07;6.70;;;9.10;1.00;;;;;;5097850;28;20513;-57
2022/05/13 01:55:13;;;;;;;10.03;7.40;;;9.00;1.00;;;;;;5098235;28;20777;-57
2022/05/13 01:57:43;;;;;;;8.63;7.77;;;9.00;1.00;;;;;;5095495;28;20467;-56
2022/05/13 02:00:10;;;;;;;9.97;7.17;;;8.90;1.00;;;;;;5077714;28;20511;-58
2022/05/13 02:05:21;;;;;;;11.50;7.57;;;9.10;1.00;;;;;;5076030;28;20437;-57
2022/05/13 02:07:50;;;;;;;9.93;7.50;;;9.10;1.00;;;;;;5077301;28;20497;-56
2022/05/13 02:10:21;;;;;;;9.83;7.03;;;9.00;1.00;;;;;;5097395;28;20494;-57
2022/05/13 02:12:56;;;;;;;10.40;7.87;;;9.00;1.00;;;;;;5097778;28;20567;-58
2022/05/13 02:15:25;;;;;;;10.20;7.43;;;8.90;1.00;;;;;;5097132;28;20961;-57
2022/05/13 02:17:58;;;;;;;10.47;8.10;;;8.90;1.00;;;;;;5097892;28;20515;-56
2022/05/13 02:20:30;;;;;;;8.73;7.90;;;8.90;1.00;;;;;;5079592;28;20579;-57
2022/05/13 02:23:02;;;;;;;12.37;7.63;;;9.00;1.00;;;;;;5077724;28;20458;-55
2022/05/13 02:25:34;;;;;;;10.17;7.90;;;9.00;1.00;;;;;;5077677;28;20900;-57
2022/05/13 02:28:07;;;;;;;11.40;6.73;;;9.00;1.00;;;;;;5077544;28;20558;-57
2022/05/13 02:30:37;;;;;;;9.83;8.07;;;9.00;1.00;;;;;;5090788;28;20489;-58
2022/05/13 02:33:08;;;;;;;9.10;8.17;;;8.90;1.00;;;;;;5097820;28;20823;-57
2022/05/13 02:35:38;;;;;;;10.30;8.10;;;8.80;1.00;;;;;;5096116;28;20484;-57
2022/05/13 02:38:08;;;;;;;8.27;7.33;;;8.80;1.00;;;;;;5097441;28;20530;-57
2022/05/13 02:43:21;;;;;;;8.00;7.30;;;8.70;1.00;;;;;;5077256;28;20520;-57
2022/05/13 02:45:48;;;;;;;10.87;8.10;;;8.70;1.00;;;;;;5076560;28;20465;-57
2022/05/13 02:48:16;;;;;;;10.40;7.03;;;8.60;1.00;;;;;;5077114;28;20851;-57
2022/05/13 02:50:43;;;;;;;7.93;7.13;;;8.60;1.00;;;;;;5083583;28;20503;-57
2022/05/13 02:53:10;;;;;;;11.50;8.00;;;8.50;1.00;;;;;;5097783;28;20461;-57
2022/05/13 02:55:40;;;;;;;8.73;7.80;;;8.50;1.00;;;;;;5084557;28;20461;-57
2022/05/13 02:58:07;;;;;;;8.67;6.90;;;8.50;1.00;;;;;;5077594;28;20457;-55
2022/05/13 03:00:34;;;;;;;7.63;6.47;;;8.50;1.00;;;;;;5077048;28;20510;-55
2022/05/13 03:03:05;;;;;;;8.10;6.50;;;8.50;1.00;;;;;;5076651;28;20890;-57
2022/05/13 03:05:34;;;;;;;12.10;7.70;;;8.60;1.00;;;;;;5077626;28;20462;-57
2022/05/13 03:08:06;;;;;;;10.73;7.63;;;8.60;1.00;;;;;;5076648;28;20493;-57
2022/05/13 03:10:44;;;;;;;10.13;7.40;;;8.80;1.00;;;;;;5075770;28;20465;-57
2022/05/13 03:13:18;;;;;;;11.93;7.47;;;9.00;1.00;;;;;;5076934;28;20465;-57
2022/05/13 03:15:45;;;;;;;9.60;7.43;;;9.10;1.00;;;;;;5081584;28;20836;-58
2022/05/13 03:18:12;;;;;;;10.80;7.90;;;9.00;1.00;;;;;;5097110;28;20505;-57
2022/05/13 03:20:39;;;;;;;8.90;6.40;;;9.00;1.00;;;;;;5096743;28;20526;-58
2022/05/13 03:23:12;;;;;;;10.93;7.40;;;8.90;1.00;;;;;;5097478;28;20780;-57
2022/05/13 03:25:39;;;;;;;10.03;6.77;;;8.90;1.00;;;;;;5096288;28;20822;-58
2022/05/13 03:28:07;;;;;;;13.73;7.07;;;8.90;1.00;;;;;;5092946;28;20510;-57
2022/05/13 03:30:49;;;;;;;11.47;6.53;;;9.00;1.00;;;;;;5076901;28;20496;-57
2022/05/13 03:33:20;;;;;;;8.43;6.93;;;9.20;1.00;;;;;;5076988;28;20821;-57
2022/05/13 03:35:50;;;;;;;9.47;6.37;;;9.40;1.00;;;;;;5092421;28;20461;-58
2022/05/13 03:38:17;;;;;;;8.17;5.07;;;9.60;1.00;;;;;;5096179;28;20486;-57
2022/05/13 03:40:49;;;;;;;6.80;5.23;;;9.80;1.00;;;;;;5096905;28;20941;-56
2022/05/13 03:43:16;;;;;;;5.90;5.00;;;10.00;1.00;;;;;;5094236;28;20542;-56
2022/05/13 03:45:48;;;;;;;5.30;4.63;;;10.00;1.00;;;;;;5094797;28;20504;-57
2022/05/13 03:48:18;;;;;;;10.53;4.57;;;10.10;1.00;;;;;;5095576;28;20492;-57
2022/05/13 03:50:48;;;;;;;8.47;4.50;;;10.10;1.00;;;;;;5096893;28;20456;-57
2022/05/13 03:53:19;;;;;;;9.97;4.23;;;10.20;1.00;;;;;;5096534;28;20494;-58
2022/05/13 03:58:34;;;;;;;7.60;3.73;;;10.20;1.00;;;;;;5075684;28;20437;-58
2022/05/13 04:01:04;;;;;;;6.63;4.33;;;10.20;99.90;;;;;;5075143;28;20684;-58
2022/05/13 04:03:38;;;;;;;7.13;3.67;;;10.20;99.90;;;;;;5074458;28;20457;-57
2022/05/13 04:08:59;;;;;;;8.83;4.73;;;10.20;99.90;;;;;;5096258;28;20436;-57
2022/05/13 04:11:30;;;;;;;10.50;4.60;;;10.20;99.90;;;;;;5096032;28;20529;-58
2022/05/13 04:16:48;;;;;;;6.90;3.50;;;10.20;99.90;;;;;;5090318;28;20455;-57
2022/05/13 04:19:15;;;;;;;5.77;3.60;;;10.20;99.90;;;;;;5098622;28;20449;-56
2022/05/13 04:21:46;;;;;;;12.37;4.70;;;10.20;99.90;;;;;;5099681;28;20460;-58
2022/05/13 04:24:17;;;;;;;6.07;3.60;;;10.20;99.90;;;;;;5099977;28;20455;-57
2022/05/13 04:26:47;;;;;;;5.50;4.03;;;10.20;99.90;;;;;;5099839;28;20937;-57
2022/05/13 04:29:17;;;;;;;7.73;3.93;;;10.20;99.90;;;;;;5084079;28;20794;-57
2022/05/13 04:31:48;;;;;;;4.77;3.40;;;10.20;99.90;;;;;;5078866;28;20533;-57
2022/05/13 04:34:17;;;;;;;9.80;3.93;;;10.20;99.90;;;;;;5078165;28;20759;-58
2022/05/13 04:36:49;;;;;;;7.63;3.60;;;10.20;99.90;;;;;;5079605;28;20507;-56
2022/05/13 04:39:19;;;;;;;6.27;3.73;;;10.20;99.90;;;;;;5090511;28;20514;-56
2022/05/13 04:44:39;;;;;;;6.07;3.17;;;10.30;99.90;;;;;;5099105;28;20494;-58
2022/05/13 04:48:15;;;;;;;9.57;3.20;;;10.40;99.90;;;;;;5098853;28;20533;-57
2022/05/13 04:49:55;;;;;;;11.10;3.63;;;10.60;99.90;;;;;;5078569;28;20441;-58
2022/05/13 04:52:22;;;;;;;6.23;3.40;;;10.60;99.90;;;;;;5078941;28;20842;-57
2022/05/13 04:54:52;;;;;;;6.37;3.50;;;10.70;99.90;;;;;;5079527;28;20554;-57
2022/05/13 04:57:21;;;;;;;8.30;3.20;;;10.80;99.90;;;;;;5078817;28;20461;-58
2022/05/13 04:59:51;;;;;;;7.00;3.50;;;10.80;99.90;;;;;;5086488;28;20517;-57
2022/05/13 05:02:25;;;;;;;13.10;3.40;;;10.80;99.90;;;;;;5095651;28;20464;-59
2022/05/13 05:04:55;;;;;;;8.47;3.80;;;10.80;99.90;;;;;;5077977;28;20819;-58
2022/05/13 05:07:22;;;;;;;9.00;4.10;;;10.80;99.90;;;;;;5094210;28;20538;-57
2022/05/13 05:09:52;;;;;;;6.10;3.70;;;10.80;99.90;;;;;;5090267;28;20468;-57
2022/05/13 05:12:19;;;;;;;6.63;4.10;;;10.90;99.90;;;;;;5097706;28;20464;-58
2022/05/13 05:14:46;;;;;;;7.57;4.10;;;10.80;99.90;;;;;;5080109;28;20462;-57
2022/05/13 05:17:24;;;;;;;7.70;3.87;;;10.90;99.90;;;;;;5077583;28;20461;-54
2022/05/13 05:20:02;;;;;;;8.43;4.77;;;11.00;99.90;;;;;;5078132;28;20842;-56
2022/05/13 05:22:34;;;;;;;9.47;3.90;;;11.10;99.90;;;;;;5078729;28;20717;-57
2022/05/13 05:25:02;;;;;;;9.53;4.37;;;11.20;99.90;;;;;;5092549;28;20465;-56
2022/05/13 05:27:29;;;;;;;6.97;4.53;;;11.30;99.90;;;;;;5098032;28;20522;-57
2022/05/13 05:30:00;;;;;;;7.23;3.83;;;11.40;99.90;;;;;;5089160;28;20487;-59
2022/05/13 05:32:41;;;;;;;8.77;5.20;;;11.50;99.90;;;;;;5088458;28;20469;-58
2022/05/13 05:35:20;;;;;;;12.73;5.40;;;11.50;99.90;;;;;;5082144;28;20538;-58
2022/05/13 05:37:58;;;;;;;8.60;4.07;;;11.50;99.90;;;;;;5078014;28;20518;-58
2022/05/13 05:40:25;;;;;;;6.23;4.10;;;11.50;99.90;;;;;;5081127;28;21023;-53
2022/05/13 05:42:59;;;;;;;5.87;4.00;;;11.50;99.90;;;;;;5093633;28;20464;-60
2022/05/13 05:45:28;;;;;;;13.20;5.33;;;11.50;99.90;;;;;;5093301;28;20837;-61
2022/05/13 05:47:57;;;;;;;11.77;4.40;;;11.40;99.90;;;;;;5081101;28;20933;-61
2022/05/13 05:50:24;;;;;;;7.07;4.03;;;11.50;99.90;;;;;;5077804;28;20465;-61
2022/05/13 05:52:53;;;;;;;12.30;4.87;;;11.50;99.90;;;;;;5078195;28;20898;-61
2022/05/13 05:58:11;;;;;;;6.57;4.00;;;11.70;99.90;;;;;;5097711;28;20419;-61
2022/05/13 06:00:41;;;;;;;6.90;4.60;;;11.70;99.90;;;;;;5097536;28;20513;-60
2022/05/13 06:03:12;;;;;;;5.90;3.87;;;11.80;99.90;;;;;;5097372;28;20507;-61
2022/05/13 06:05:41;;;;;;;14.43;4.70;;;12.00;99.90;;;;;;5092550;28;20515;-61
2022/05/13 06:08:10;;;;;;;8.63;4.40;;;12.20;99.90;;;;;;5077319;28;20785;-61
2022/05/13 06:10:39;;;;;;;10.40;4.83;;;12.30;99.90;;;;;;5077361;28;20522;-61
2022/05/13 06:13:11;;;;;;;9.23;4.60;;;12.20;99.90;;;;;;5077387;28;20513;-61
2022/05/13 06:15:41;;;;;;;8.37;4.53;;;12.10;99.90;;;;;;5077038;28;20553;-61
2022/05/13 06:18:09;;;;;;;13.17;5.10;;;12.00;99.90;;;;;;5097169;28;20533;-61
2022/05/13 06:20:36;;;;;;;9.97;5.40;;;12.10;99.90;;;;;;5097190;28;20464;-61
2022/05/13 06:23:04;;;;;;;7.70;4.17;;;12.40;99.90;;;;;;5096949;28;20461;-60
2022/05/13 06:25:30;;;;;;;8.20;4.67;;;12.80;99.90;;;;;;5097984;28;20535;-61
2022/05/13 06:28:02;;;;;;;12.60;4.70;;;13.10;99.90;;;;;;5080797;28;20551;-62
2022/05/13 06:30:35;;;;;;;7.60;4.30;;;13.50;99.90;;;;;;5077115;28;20991;-61
2022/05/13 06:33:04;;;;;;;13.33;5.27;;;13.60;99.90;;;;;;5076358;28;20518;-62
2022/05/13 06:35:38;;;;;;;9.87;4.20;;;13.70;99.90;;;;;;5077675;28;20527;-62
2022/05/13 06:38:05;;;;;;;9.47;4.40;;;13.80;99.90;;;;;;5086562;28;20872;-61
2022/05/13 06:40:33;;;;;;;9.03;4.47;;;13.90;99.90;;;;;;5097005;28;20488;-61
2022/05/13 06:43:00;;;;;;;8.80;5.33;;;13.90;99.90;;;;;;5095508;28;20457;-61
2022/05/13 06:45:32;;;;;;;7.87;4.40;;;14.20;99.90;;;;;;5089614;28;20479;-62
2022/05/13 06:48:03;;;;;;;7.83;4.80;;;14.30;99.90;;;;;;5079913;28;20546;-62
2022/05/13 06:50:32;;;;;;;8.63;5.40;;;14.60;99.90;;;;;;5076743;28;20458;-61
2022/05/13 06:52:59;;;;;;;17.40;5.47;;;14.80;99.90;;;;;;5076683;28;20965;-62
2022/05/13 06:55:39;;;;;;;7.43;4.70;;;14.80;99.90;;;;;;5076945;28;20465;-61
2022/05/13 06:58:08;;;;;;;12.67;4.93;;;14.70;99.90;;;;;;5080627;28;20555;-61
2022/05/13 07:00:35;;;;;;;11.20;3.90;;;15.00;99.90;;;;;;5096383;28;20509;-61
2022/05/13 07:03:02;;;;;;;11.93;5.03;;;15.40;99.90;;;;;;5096198;28;20517;-62
2022/05/13 07:05:33;;;;;;;7.63;4.00;;;15.60;99.90;;;;;;5095191;28;20904;-61
2022/05/13 07:08:00;;;;;;;7.93;4.80;;;15.90;99.90;;;;;;5094958;28;20944;-61
2022/05/13 07:10:29;;;;;;;6.97;3.93;;;16.30;99.90;;;;;;5076900;28;20465;-61
2022/05/13 07:12:57;;;;;;;7.70;4.50;;;16.00;99.90;;;;;;5076821;28;20468;-62
2022/05/13 07:15:27;;;;;;;8.93;5.00;;;15.90;99.90;;;;;;5076664;28;20469;-61
2022/05/13 07:17:57;;;;;;;9.90;5.10;;;16.00;99.90;;;;;;5077946;28;20508;-61
2022/05/13 07:20:25;;;;;;;12.10;4.20;;;16.30;99.90;;;;;;5084922;28;20840;-61
2022/05/13 07:22:54;;;;;;;10.70;4.10;;;16.50;99.90;;;;;;5078179;28;20497;-60
2022/05/13 07:25:31;;;;;;;6.77;4.17;;;16.70;99.90;;;;;;5077508;28;21858;-62
2022/05/13 07:27:58;;;;;;;10.60;3.90;;;16.40;99.90;;;;;;5074819;28;20879;-61
2022/05/13 07:30:31;;;;;;;9.53;4.10;;;16.10;99.90;;;;;;5074442;28;20523;-61
2022/05/13 07:32:58;;;;;;;7.03;4.60;;;16.20;99.90;;;;;;5088089;28;21014;-62
2022/05/13 07:35:25;;;;;;;6.50;3.57;;;16.60;99.90;;;;;;5078497;28;20465;-62
2022/05/13 07:37:52;;;;;;;5.87;4.90;;;16.80;99.90;;;;;;5076141;28;20457;-62
2022/05/13 07:43:13;;;;;;;6.90;4.30;;;17.00;99.90;;;;;;5095692;28;20904;-62
2022/05/13 07:45:40;;;;;;;4.53;3.60;;;16.80;99.90;;;;;;5089083;28;20496;-61
2022/05/13 07:48:10;;;;;;;5.63;4.37;;;16.70;99.90;;;;;;5091110;28;20554;-61
2022/05/13 07:50:38;;;;;;;6.90;4.07;;;16.40;99.90;;;;;;5092544;28;20456;-61
2022/05/13 07:53:08;;;;;;;7.70;4.40;;;16.60;99.90;;;;;;5100578;28;20493;-62
2022/05/13 07:55:38;;;;;;;8.57;3.93;;;16.80;99.90;;;;;;5081004;28;20461;-62
2022/05/13 07:58:05;;;;;;;5.27;3.40;;;16.60;99.90;;;;;;5078065;28;20551;-61
2022/05/13 08:00:38;;;;;;;5.77;3.90;;;16.70;99.90;;;;;;5086628;28;20464;-62
2022/05/13 08:03:08;;;;;;;8.50;4.40;;;17.10;99.90;;;;;;5094109;28;20461;-62
2022/05/13 08:05:40;;;;;;;7.53;4.00;;;17.30;99.90;;;;;;5084320;28;20522;-61
2022/05/13 08:08:19;;;;;;;7.53;3.43;;;17.20;99.90;;;;;;5078822;28;20969;-61
2022/05/13 08:10:54;;;;;;;6.63;3.87;;;16.70;99.90;;;;;;5097718;28;20872;-62
2022/05/13 08:13:28;;;;;;;9.30;3.63;;;17.20;99.90;;;;;;5099633;28;20466;-62
2022/05/13 08:15:55;;;;;;;7.50;3.70;;;17.30;99.90;;;;;;5098473;28;20495;-61
2022/05/13 08:18:25;;;;;;;6.30;4.20;;;17.80;99.90;;;;;;5098804;28;20819;-61
2022/05/13 08:20:57;;;;;;;7.83;4.47;;;17.80;99.90;;;;;;5099914;28;20460;-61
2022/05/13 08:23:24;;;;;;;4.53;4.00;;;18.50;99.90;;;;;;5099721;28;20887;-62
2022/05/13 08:25:57;;;;;;;10.43;4.03;;;18.80;99.90;;;;;;5099888;28;20874;-62
2022/05/13 08:28:25;;;;;;;7.37;4.17;;;18.90;99.90;;;;;;5098261;28;20488;-62
2022/05/13 08:30:58;;;;;;;4.77;3.50;;;19.20;99.90;;;;;;5099143;28;20799;-62
2022/05/13 08:33:38;;;;;;;6.67;4.20;;;19.40;99.90;;;;;;5084003;28;20461;-61
2022/05/13 08:36:07;;;;;;;4.17;2.87;;;19.40;99.90;;;;;;5078743;28;20468;-62
2022/05/13 08:38:42;;;;;;;9.70;3.17;;;19.80;99.90;;;;;;5079254;28;20742;-61
2022/05/13 08:41:39;;;;;;;7.40;3.50;;;19.10;99.90;;;;;;5097125;28;20472;-62
2022/05/13 08:44:15;;;;;;;8.97;3.90;;;18.10;99.90;;;;;;5083345;28;20975;-62
2022/05/13 08:46:57;;;;;;;3.80;3.50;;;18.00;99.90;;;;;;5081543;28;20473;-62
2022/05/13 08:49:33;;;;;;;6.30;2.97;;;17.70;99.90;;;;;;5077739;28;20979;-61
2022/05/13 08:55:06;;;;;;;5.73;4.70;;;18.50;99.90;;;;;;5076996;28;20448;-62
2022/05/13 08:57:39;;;;;;;7.60;2.90;;;17.70;99.90;;;;;;5095901;28;20901;-62
2022/05/13 09:00:14;;;;;;;4.07;3.30;;;17.60;99.90;;;;;;5089833;28;20464;-62
2022/05/13 09:02:49;;;;;;;7.53;3.43;;;18.20;99.90;;;;;;5097499;28;20958;-62
2022/05/13 09:05:26;;;;;;;5.07;3.37;;;18.60;99.90;;;;;;5098000;28;20456;-61
2022/05/13 09:08:04;;;;;;;7.07;3.30;;;19.10;99.90;;;;;;5097467;28;20452;-62
2022/05/13 09:10:32;;;;;;;6.40;3.50;;;19.30;99.90;;;;;;5077782;28;20554;-62
2022/05/13 09:13:19;;;;;;;5.60;3.70;;;19.40;99.90;;;;;;5085734;28;20889;-62
2022/05/13 09:15:50;;;;;;;7.53;3.13;;;20.00;99.90;;;;;;5096728;28;20577;-62
2022/05/13 09:18:24;;;;;;;5.37;3.30;;;20.50;99.90;;;;;;5095476;28;20527;-62
2022/05/13 09:21:02;;;;;;;8.10;3.23;;;20.40;99.90;;;;;;5095578;28;20872;-62
2022/05/13 09:23:29;;;;;;;5.13;3.60;;;20.60;99.90;;;;;;5092367;28;20464;-62
2022/05/13 09:26:07;;;;;;;5.30;3.20;;;20.50;99.90;;;;;;5095019;28;20816;-62
2022/05/13 09:28:37;;;;;;;4.03;2.90;;;20.40;99.90;;;;;;5098033;28;20484;-61
2022/05/13 09:31:19;;;;;;;5.77;3.63;;;20.00;99.90;;;;;;5095579;28;20517;-61
2022/05/13 09:33:47;;;;;;;4.37;3.17;;;18.80;99.90;;;;;;5077110;28;20473;-61
2022/05/13 09:36:35;;;;;;;6.53;3.40;;;18.70;99.90;;;;;;5078042;28;20464;-61
2022/05/13 09:39:26;;;;;;;5.30;2.70;;;19.30;99.90;;;;;;5077556;28;20489;-61
2022/05/13 09:42:00;;;;;;;5.43;3.30;;;19.50;99.90;;;;;;5077817;28;20460;-61
2022/05/13 09:44:30;;;;;;;5.50;2.80;;;19.90;99.90;;;;;;5086024;28;20460;-61
2022/05/13 09:47:11;;;;;;;3.90;2.60;;;20.10;99.90;;;;;;5098074;28;20460;-61
2022/05/13 09:49:46;;;;;;;5.33;3.20;;;19.90;99.90;;;;;;5097206;28;20515;-61
2022/05/13 09:52:20;;;;;;;6.63;3.07;;;19.40;99.90;;;;;;5088427;28;20815;-61
2022/05/13 09:55:05;;;;;;;5.27;3.10;;;20.00;99.90;;;;;;5089397;28;20475;-61
2022/05/13 09:57:35;;;;;;;4.00;2.87;;;20.50;99.90;;;;;;5093937;28;20553;-61
2022/05/13 10:00:07;;;;;;;6.47;2.63;;;20.00;99.90;;;;;;5076642;28;20523;-61
2022/05/13 10:02:36;;;;;;;3.90;2.37;;;19.60;99.90;;;;;;5075099;28;20461;-59
2022/05/13 10:05:16;;;;;;;3.20;2.53;;;19.80;99.90;;;;;;5077803;28;20926;-61
2022/05/13 10:07:55;;;;;;;3.63;2.63;;;19.50;99.90;;;;;;5077099;28;20461;-61
2022/05/13 10:16:08;;;;;;;3.77;2.47;;;19.60;99.90;;;;;;5069122;28;20494;-62
2022/05/13 10:18:39;;;;;;;4.10;3.00;;;19.60;99.90;;;;;;5088469;28;20784;-61
2022/05/13 10:21:11;;;;;;;4.50;3.20;;;19.40;99.90;;;;;;5094196;28;20619;-62
2022/05/13 10:23:46;;;;;;;4.40;3.20;;;18.00;99.90;;;;;;5078087;28;20469;-61
2022/05/13 10:26:16;;;;;;;3.50;2.37;;;17.60;99.90;;;;;;5080663;28;20517;-61
2022/05/13 10:28:54;;;;;;;4.17;2.47;;;18.00;99.90;;;;;;5077190;28;20488;-60
2022/05/13 10:31:25;;;;;;;5.83;2.70;;;17.90;99.90;;;;;;5083104;28;20842;-60
2022/05/13 10:33:59;;;;;;;10.13;4.30;;;17.80;99.90;;;;;;5093413;28;20471;-61
2022/05/13 10:36:31;;;;;;;3.27;2.60;;;17.40;99.90;;;;;;5081072;28;20559;-60
2022/05/13 10:39:05;;;;;;;3.13;2.63;;;17.60;99.90;;;;;;5096569;28;20488;-60
2022/05/13 10:41:38;;;;;;;3.20;2.80;;;18.00;99.90;;;;;;5092265;28;20460;-60
2022/05/13 10:44:11;;;;;;;3.83;2.80;;;18.00;99.90;;;;;;5091536;28;20460;-61
2022/05/13 10:46:51;;;;;;;4.03;2.70;;;18.00;99.90;;;;;;5089125;28;20914;-62
2022/05/13 10:54:43;;;;;;;3.77;2.80;;;17.80;99.90;;;;;;5008134;28;20551;-59
2022/05/13 10:57:29;;;;;;;5.07;3.30;;;17.60;99.90;;;;;;5014020;28;20477;-60
2022/05/13 11:00:13;;;;;;;3.33;2.80;;;17.90;99.90;;;;;;5003645;28;20741;-59
2022/05/13 11:03:34;;;;;;;3.80;2.90;;;19.10;99.90;;;;;;5014884;28;20468;-61
2022/05/13 11:06:22;;;;;;;3.53;2.63;;;20.10;99.90;;;;;;4965543;28;20830;-59
2022/05/13 11:09:06;;;;;;;4.30;2.93;;;20.20;99.90;;;;;;4998609;28;20591;-58
2022/05/13 11:11:46;;;;;;;6.17;3.23;;;19.30;99.90;;;;;;5017145;28;20478;-60
2022/05/13 11:14:27;;;;;;;5.20;2.57;;;18.70;99.90;;;;;;5013684;28;20464;-59
2022/05/13 11:17:01;;;;;;;5.60;3.53;;;18.60;99.90;;;;;;5012490;28;20534;-60
2022/05/13 11:19:33;;;;;;;4.53;2.60;;;19.90;99.90;;;;;;5018227;28;20467;-60
2022/05/13 11:22:13;;;;;;;3.60;2.60;;;20.30;99.90;;;;;;5036941;28;20502;-59
2022/05/13 11:27:56;;;;;;;3.07;2.10;;;19.50;99.90;;;;;;5008125;28;20456;-60
2022/05/13 11:30:32;;;;;;;3.43;2.90;;;19.30;99.90;;;;;;5012189;28;20489;-60
2022/05/13 11:33:12;;;;;;;4.70;2.83;;;19.10;99.90;;;;;;5004382;28;20506;-60
2022/05/13 11:35:44;;;;;;;5.47;3.43;;;18.80;99.90;;;;;;5015675;28;20536;-59
2022/05/13 11:38:23;;;;;;;8.40;3.47;;;18.90;99.90;;;;;;5005418;28;20532;-59
2022/05/13 11:40:57;;;;;;;4.87;2.80;;;18.80;99.90;;;;;;5018061;28;20468;-60
2022/05/13 11:43:38;;;;;;;3.07;2.60;;;18.80;99.90;;;;;;5008529;28;20563;-59
2022/05/13 11:46:34;;;;;;;2.97;2.37;;;18.70;99.90;;;;;;5019792;28;20467;-59
2022/05/13 11:49:14;;;;;;;5.93;2.77;;;18.50;99.90;;;;;;4995887;28;20531;-60
2022/05/13 11:51:41;;;;;;;4.50;2.67;;;18.30;99.90;;;;;;5012580;28;20467;-60
2022/05/13 11:54:27;;;;;;;8.57;3.33;;;18.60;99.90;;;;;;5008889;28;20860;-59
2022/05/13 11:57:24;;;;;;;6.00;2.87;;;18.90;99.90;;;;;;5016731;28;20518;-59
2022/05/13 12:00:23;;;;;;;8.43;3.33;;;18.90;99.90;;;;;;5016782;28;20456;-59
2022/05/13 12:02:54;;;;;;;5.70;2.77;;;19.70;99.90;;;;;;5001136;28;20468;-60
2022/05/13 12:05:55;;;;;;;5.13;3.03;;;20.00;99.90;;;;;;5018145;28;20464;-59
2022/05/13 12:08:25;;;;;;;6.03;3.00;;;19.70;99.90;;;;;;5005038;28;20459;-59
2022/05/13 12:11:11;;;;;;;4.63;2.97;;;19.20;99.90;;;;;;5022641;28;20501;-61
2022/05/13 12:13:48;;;;;;;4.33;2.90;;;19.00;99.90;;;;;;5018789;28;20828;-60
2022/05/13 12:16:33;;;;;;;6.30;3.10;;;19.30;99.90;;;;;;5017748;28;20783;-61
2022/05/13 12:19:32;;;;;;;3.90;3.53;;;19.50;99.90;;;;;;5004704;28;20450;-61
2022/05/13 12:22:09;;;;;;;7.13;2.70;;;20.00;99.90;;;;;;5010734;28;20822;-61
2022/05/13 12:25:12;;;;;;;5.87;3.70;;;21.10;99.90;;;;;;5017498;28;20464;-61
2022/05/13 12:27:45;;;;;;;5.27;3.20;;;21.80;99.90;;;;;;5009436;28;20479;-60
2022/05/13 12:30:33;;;;;;;4.60;3.20;;;21.40;99.90;;;;;;5014174;28;20565;-61
2022/05/13 12:33:34;;;;;;;4.00;3.60;;;20.80;99.90;;;;;;5009185;28;20469;-60
2022/05/13 12:39:09;;;;;;;4.77;2.80;;;19.80;99.90;;;;;;5005749;28;20459;-61
2022/05/13 12:41:59;;;;;;;3.90;3.00;;;20.80;99.90;;;;;;5014066;28;20491;-61
2022/05/13 12:44:36;;;;;;;7.63;3.20;;;20.70;99.90;;;;;;5009861;28;20946;-61
2022/05/13 12:47:26;;;;;;;4.80;3.83;;;20.40;99.90;;;;;;5016249;28;20468;-61
2022/05/13 12:50:09;;;;;;;5.37;3.50;;;20.10;99.90;;;;;;5007843;28;20488;-61
2022/05/13 12:52:48;;;;;;;4.80;2.90;;;20.20;99.90;;;;;;5008968;28;20571;-61
2022/05/13 12:55:20;;;;;;;8.07;3.43;;;20.30;99.90;;;;;;5009735;28;20902;-61
2022/05/13 12:57:55;;;;;;;4.53;3.63;;;20.20;99.90;;;;;;5004391;28;20567;-61
2022/05/13 13:00:34;;;;;;;4.33;3.83;;;20.20;99.90;;;;;;5006370;28;20490;-59
2022/05/13 13:03:09;;;;;;;3.87;3.30;;;20.60;99.90;;;;;;5014266;28;20471;-60
2022/05/13 13:05:57;;;;;;;7.50;3.57;;;20.10;99.90;;;;;;5016502;28;20471;-60
2022/05/13 13:08:28;;;;;;;5.60;3.33;;;19.20;99.90;;;;;;5016031;28;20478;-60
2022/05/13 13:11:09;;;;;;;4.03;3.50;;;19.30;99.90;;;;;;5002266;28;20551;-60
2022/05/13 13:13:44;;;;;;;6.03;3.13;;;19.30;99.90;;;;;;5012259;28;20498;-59
2022/05/13 13:16:22;;;;;;;3.90;3.30;;;19.70;99.90;;;;;;5010585;28;20467;-61
2022/05/13 13:19:07;;;;;;;6.60;3.73;;;20.40;99.90;;;;;;5008621;28;20514;-60
2022/05/13 13:21:37;;;;;;;5.47;3.60;;;20.40;99.90;;;;;;5009374;28;20538;-60
2022/05/13 13:24:14;;;;;;;4.47;3.33;;;20.40;99.90;;;;;;5011883;28;20506;-61
2022/05/13 13:26:43;;;;;;;6.40;3.03;;;20.70;99.90;;;;;;5016977;28;20462;-60
2022/05/13 13:29:15;;;;;;;4.30;3.60;;;20.90;99.90;;;;;;5015854;28;20512;-60
2022/05/13 13:31:51;;;;;;;8.70;3.60;;;21.20;99.90;;;;;;5009637;28;20473;-60
2022/05/13 13:34:31;;;;;;;5.20;3.50;;;20.60;99.90;;;;;;4998834;28;20526;-60
2022/05/13 13:37:03;;;;;;;6.27;3.80;;;21.00;99.90;;;;;;5001657;28;20846;-61
2022/05/13 13:39:32;;;;;;;5.63;3.70;;;21.20;99.90;;;;;;5006696;28;20469;-60
2022/05/13 13:42:07;;;;;;;6.23;3.37;;;21.90;99.90;;;;;;5016764;28;20482;-61
2022/05/13 13:44:38;;;;;;;5.30;3.50;;;21.80;99.90;;;;;;5006285;28;20472;-60
2022/05/13 13:47:26;;;;;;;4.73;3.40;;;21.10;99.90;;;;;;5011212;28;20522;-60
2022/05/13 13:49:56;;;;;;;14.70;4.47;;;21.00;99.90;;;;;;5016066;28;20491;-60
2022/05/13 13:52:31;;;;;;;3.60;3.17;;;21.80;99.90;;;;;;5011638;28;20504;-60
2022/05/13 13:55:06;;;;;;;4.30;3.40;;;22.10;99.90;;;;;;5014858;28;20879;-60
2022/05/13 13:57:56;;;;;;;5.83;3.50;;;23.00;99.90;;;;;;5011925;28;20475;-60
2022/05/13 14:00:33;;;;;;;5.60;3.23;;;23.30;99.90;;;;;;4999142;28;20526;-60
2022/05/13 14:03:09;;;;;;;6.33;3.83;;;23.70;99.90;;;;;;5008739;28;20480;-60
2022/05/13 14:05:41;;;;;;;7.73;3.17;;;23.00;99.90;;;;;;5017690;28;20463;-61
2022/05/13 14:08:12;;;;;;;3.90;3.53;;;21.60;99.90;;;;;;4998610;28;20539;-61